Flight Track Log - Related Links

Times and Time Zones

All times are in EDT time to prevent confusion due to time zone crossing. See the AWE858 flight status page for this flight to view local times or setup timezone preferences in your user account.

Time Position Orientation Groundspeed Altitude Reporting Facility
EDT Latitude Longitude Course Direction KTS MPH feet Rate Location/Type
Mon 01:28:00 PM 18.8386 -77.9801 349° North  Level FlightAware Approximate
Mon 01:29:00 PM 18.9503 -78.0024 349° North  Level FlightAware Approximate
Mon 01:30:00 PM 19.0619 -78.0247 349° North  Level FlightAware Approximate
Mon 01:31:00 PM 19.1735 -78.0471 349° North  Level FlightAware Approximate
Mon 01:32:00 PM 19.2851 -78.0695 349° North  Level FlightAware Approximate
Mon 01:33:00 PM 19.3967 -78.0919 349° North  Level FlightAware Approximate
Mon 01:34:00 PM 19.5084 -78.1143 349° North  Level FlightAware Approximate
Mon 01:35:00 PM 19.6200 -78.1368 349° North  Level FlightAware Approximate
Mon 01:36:00 PM 19.7316 -78.1593 349° North  Level FlightAware Approximate
Mon 01:37:00 PM 19.8432 -78.1819 349° North  Level FlightAware Approximate
Mon 01:38:00 PM 19.9548 -78.2045 349° North  Level FlightAware Approximate
Mon 01:39:00 PM 20.0664 -78.2271 349° North  Level FlightAware Approximate
Mon 01:40:00 PM 20.1780 -78.2497 349° North  Level FlightAware Approximate
Mon 01:41:00 PM 20.2896 -78.2724 349° North  Level FlightAware Approximate
Mon 01:42:00 PM 20.4012 -78.2951 349° North  Level FlightAware Approximate
Mon 01:43:00 PM 20.5128 -78.3178 349° North  Level FlightAware Approximate
Mon 01:44:00 PM 20.6244 -78.3406 349° North  Level FlightAware Approximate
Mon 01:45:00 PM 20.7360 -78.3634 349° North  Level FlightAware Approximate
Mon 01:46:00 PM 20.8416 -78.3852 348° North  Level FlightAware Approximate
Mon 01:47:00 PM 20.9528 -78.4098 348° North  Level FlightAware Approximate
Mon 01:48:00 PM 21.0641 -78.4345 348° North  Level FlightAware Approximate
Mon 01:49:00 PM 21.1753 -78.4593 348° North  Level FlightAware Approximate
Mon 01:50:00 PM 21.2866 -78.4840 349° North  Level FlightAware Approximate
Mon 01:51:00 PM 21.3982 -78.5068 349° North  Level FlightAware Approximate
Mon 01:52:00 PM 21.5098 -78.5296 349° North  Level FlightAware Approximate
Mon 01:53:00 PM 21.6214 -78.5525 349° North  Level FlightAware Approximate
Mon 01:54:00 PM 21.7330 -78.5754 349° North  Level FlightAware Approximate
Mon 01:55:00 PM 21.8445 -78.5984 349° North  Level FlightAware Approximate
Mon 01:56:00 PM 21.9561 -78.6214 349° North  Level FlightAware Approximate
Mon 01:57:00 PM 22.0677 -78.6444 349° North  Level FlightAware Approximate
Mon 01:58:00 PM 22.1793 -78.6675 349° North  Level FlightAware Approximate
Mon 01:59:00 PM 22.2909 -78.6906 349° North  Level FlightAware Approximate
Mon 02:00:00 PM 22.4024 -78.7137 349° North  Level FlightAware Approximate
Mon 02:01:00 PM 22.5137 -78.7384 348° North  Level FlightAware Approximate
Mon 02:02:00 PM 22.6250 -78.7634 348° North  Level FlightAware Approximate
Mon 02:03:00 PM 22.7362 -78.7884 348° North  Level FlightAware Approximate
Mon 02:04:00 PM 22.8569 -78.8147 349° North  Level FlightAware Approximate
Mon 02:05:00 PM 22.9776 -78.8411 349° North  Level FlightAware Approximate
Mon 02:06:00 PM 23.0983 -78.8676 349° North  Level FlightAware Approximate
Mon 02:07:00 PM 23.2190 -78.8940 349° North  Level FlightAware Approximate
Mon 02:07:33 PM 23.2514 -78.9031 349° North 455 524 36,000  Level Miami Center
Mon 02:08:00 PM 23.3396 -78.9206 349° North  Level FlightAware Approximate
Mon 02:08:33 PM 23.3806 -78.9322 348° North 460 529 36,000  Level Miami Center
Mon 02:09:00 PM 23.4603 -78.9472 349° North  Level FlightAware Approximate
Mon 02:09:33 PM 23.5014 -78.9592 348° North 455 524 36,000  Level Miami Center
Mon 02:10:00 PM 23.5810 -78.9738 349° North  Level FlightAware Approximate
Mon 02:10:33 PM 23.6242 -78.9883 348° North 446 513 36,000  Level Miami Center
Mon 02:11:00 PM 23.7017 -79.0005 349° North  Level FlightAware Approximate
Mon 02:11:33 PM 23.7514 -79.0178 348° North 451 519 36,000  Level Miami Center
Mon 02:12:00 PM 23.8223 -79.0272 349° North  Level FlightAware Approximate
Mon 02:12:33 PM 23.8700 -79.0425 349° North 446 513 36,000  Level Miami Center
Mon 02:13:33 PM 23.9969 -79.0719 348° North 452 520 36,000 250 Level Miami Center
Mon 02:14:33 PM 24.1225 -79.0742 359° North 452 520 36,500 500 Climbing Miami Center
Mon 02:15:33 PM 24.2481 -79.0536 North 447 514 37,000 250 Climbing Miami Center
Mon 02:16:33 PM 24.3842 -79.0400 North 464 534 37,000  Level Miami Center
Mon 02:17:33 PM 24.5139 -79.0194 North 464 534 37,000  Level Miami Center
Mon 02:18:33 PM 24.6481 -79.0011 North 469 540 37,000  Level Miami Center
Mon 02:19:33 PM 24.7883 -78.9783 North 464 534 37,000  Level Miami Center
Mon 02:20:33 PM 24.9203 -78.9600 North 469 540 37,000  Level Miami Center
Mon 02:21:33 PM 25.0500 -78.9417 North 469 540 37,000  Level Miami Center
Mon 02:22:33 PM 25.1839 -78.9256 North 469 540 37,000  Level Miami Center
Mon 02:23:33 PM 25.3181 -78.9050 North 472 543 37,000  Level Miami Center
Mon 02:24:33 PM 25.4436 -78.8886 North 472 543 37,000  Level Miami Center
Mon 02:25:33 PM 25.5733 -78.8700 North 467 537 37,000  Level Miami Center
Mon 02:26:33 PM 25.7033 -78.8492 North 467 537 37,000  Level Miami Center
Mon 02:27:33 PM 25.8331 -78.8306 North 462 532 37,000  Level Miami Center
Mon 02:28:33 PM 25.9628 -78.8142 North 473 544 37,000  Level Miami Center
Mon 02:29:33 PM 26.0925 -78.7908 North 473 544 37,000  Level Miami Center
Mon 02:30:33 PM 26.2286 -78.7697 North 473 544 37,000  Level Miami Center
Mon 02:31:33 PM 26.3583 -78.7533 North 473 544 37,000  Level Miami Center
Mon 02:32:33 PM 26.4883 -78.7297 North 473 544 37,000  Level Miami Center
Mon 02:33:33 PM 26.6222 -78.7158 North 467 537 37,000  Level Miami Center
Mon 02:34:33 PM 26.7497 -78.6944 North 467 537 37,000  Level Miami Center
Mon 02:35:33 PM 26.8817 -78.6778 North 467 537 37,000  Level Miami Center
Mon 02:36:33 PM 26.9925 -78.6633 North 462 532 37,000  Level Miami Center
Mon 02:37:33 PM 27.1244 -78.6419 North 467 537 37,000  Level Miami Center
Mon 02:38:33 PM 27.2542 -78.6253 North 473 544 37,000  Level Miami Center
Mon 02:39:33 PM 27.3881 -78.6017 North 466 536 37,000  Level Miami Center
Mon 02:40:33 PM 27.5156 -78.5847 North 466 536 37,000  Level Miami Center
Mon 02:41:33 PM 27.6433 -78.5656 North 466 536 37,000  Level Miami Center
Mon 02:42:33 PM 27.7708 -78.5464 North 461 531 37,000  Level Miami Center
Mon 02:43:33 PM 27.9025 -78.5272 North 467 537 37,000  Level Miami Center
Mon 02:44:33 PM 28.0364 -78.5081 North 467 537 37,000  Level Miami Center
Mon 02:45:33 PM 28.1639 -78.4886 North 467 537 37,000  Level Miami Center
Mon 02:46:33 PM 28.2958 -78.4694 North 467 537 37,000  Level Miami Center
Mon 02:47:33 PM 28.4211 -78.4500 North 462 532 37,000  Level Miami Center
Mon 02:48:34 PM 28.5508 -78.4303 North 467 537 37,000  Level Miami Center
Mon 02:49:33 PM 28.6764 -78.4086 North 467 537 37,000  Level Miami Center
Mon 02:50:33 PM 28.8081 -78.3914 North 467 537 37,000  Level Miami Center
Mon 02:51:33 PM 28.9375 -78.3694 North 467 537 37,000  Level Miami Center
Mon 02:52:33 PM 29.0858 -78.3478 North 467 537 37,000  Level Miami Center
Mon 02:53:33 PM 29.2133 -78.3281 North 472 543 37,000  Level Miami Center
Mon 02:54:33 PM 29.3450 -78.3083 North 467 537 37,000  Level Miami Center
Mon 02:56:27 PM 29.5731 -78.2653 North 461 531 37,000  Level Jacksonville Center
Mon 02:57:27 PM 29.7061 -78.2494 North 474 545 37,000  Level Jacksonville Center
Mon 02:58:27 PM 29.8389 -78.2311 North 464 534 37,000  Level Jacksonville Center
Mon 02:59:27 PM 29.9633 -78.2058 10° North 465 535 37,000  Level Jacksonville Center
Mon 03:00:27 PM 30.0919 -78.1853 North 465 535 37,000  Level Jacksonville Center
Mon 03:01:27 PM 30.2231 -78.1717 North 463 533 37,000 -450 Level Jacksonville Center
Mon 03:02:27 PM 30.3494 -78.1511 North 463 533 36,100 -950 Descending Jacksonville Center
Mon 03:03:27 PM 30.4739 -78.1281 North 455 524 35,100 -550 Descending Jacksonville Center
Mon 03:04:27 PM 30.6047 -78.1117 North 455 524 35,000 -50 Descending Jacksonville Center
Mon 03:05:27 PM 30.7314 -78.0908 North 460 529 35,000  Level Jacksonville Center
Mon 03:06:27 PM 30.8578 -78.0700 North 467 537 35,000  Level Jacksonville Center
Mon 03:07:27 PM 30.9906 -78.0486 North 467 537 35,000  Level Jacksonville Center
Mon 03:08:27 PM 31.1358 -78.0267 North 467 537 35,000  Level Jacksonville Center
Mon 03:09:27 PM 31.2661 -77.9956 12° North 472 543 35,000  Level Jacksonville Center
Mon 03:10:27 PM 31.3992 -77.9789 North 477 549 35,000  Level Jacksonville Center
Mon 03:11:27 PM 31.5339 -77.9547 North 482 555 35,000 -50 Level Jacksonville Center
Mon 03:12:27 PM 31.6689 -77.9353 North 482 555 34,900  Descending Jacksonville Center
Mon 03:13:27 PM 31.8058 -77.9158 North 482 555 35,000 50 Climbing Jacksonville Center
Mon 03:14:27 PM 31.9425 -77.8936 North 482 555 35,000  Level Jacksonville Center
Mon 03:15:27 PM 32.0817 -77.8739 North 488 562 35,000  Level Jacksonville Center
Mon 03:16:27 PM 32.2206 -77.8492 North 494 568 35,000  Level Jacksonville Center
Mon 03:17:27 PM 32.3575 -77.8292 North 500 575 35,000  Level Jacksonville Center
Mon 03:18:27 PM 32.4964 -77.8042 North 500 575 35,000  Level Jacksonville Center
Mon 03:19:27 PM 32.6331 -77.7767 10° North 500 575 35,000  Level Jacksonville Center
Mon 03:20:27 PM 32.7700 -77.7567 North 500 575 35,000  Level Jacksonville Center
Mon 03:21:27 PM 32.9086 -77.7314 North 500 575 35,000  Level Jacksonville Center
Mon 03:22:27 PM 33.0475 -77.7086 North 500 575 35,000  Level Jacksonville Center
Mon 03:24:12 PM 33.2881 -77.6708 North 518 596 35,000  Level Washington Center
Mon 03:25:13 PM 33.4283 -77.6494 North 513 590 35,000  Level Washington Center
Mon 03:26:14 PM 33.5664 -77.6228 North 503 579 35,000  Level Washington Center
Mon 03:27:15 PM 33.7022 -77.5989 North 503 579 35,000  Level Washington Center
Mon 03:28:12 PM 33.8361 -77.5769 North 498 573 35,000  Level Washington Center
Mon 03:29:14 PM 33.9658 -77.5575 North 483 556 35,000  Level Washington Center
Mon 03:30:14 PM 34.0956 -77.5356 North 471 542 35,000 -51 Level Washington Center
Mon 03:31:12 PM 34.2231 -77.5133 North 466 536 34,900  Descending Washington Center
Mon 03:32:12 PM 34.3528 -77.4914 North 466 536 35,000 -99 Climbing Washington Center
Mon 03:33:13 PM 34.4847 -77.4692 North 466 536 34,700 -645 Descending Washington Center
Mon 03:34:13 PM 34.6125 -77.4292 14° North 466 536 33,700 -857 Descending Washington Center
Mon 03:35:12 PM 34.7367 -77.3664 23° Northeast 479 551 33,000 -353 Descending Washington Center
Mon 03:36:12 PM 34.8608 -77.2931 26° Northeast 479 551 33,000  Level Washington Center
Mon 03:37:13 PM 34.9869 -77.2272 23° Northeast 479 551 33,000 -492 Level Washington Center
Mon 03:38:14 PM 35.1089 -77.1586 25° Northeast 479 551 32,000 -958 Descending Washington Center
Mon 03:39:12 PM 35.2350 -77.0897 24° Northeast 484 557 31,100 -504 Descending Washington Center
Mon 03:40:13 PM 35.3483 -77.0258 25° Northeast 490 564 31,000 -50 Descending Washington Center
Mon 03:41:13 PM 35.4722 -76.9567 24° Northeast 495 570 31,000  Level Washington Center
Mon 03:42:14 PM 35.6003 -76.8872 24° Northeast 490 564 31,000  Level Washington Center
Mon 03:43:12 PM 35.7367 -76.8100 25° Northeast 485 558 31,000  Level Washington Center
Mon 03:44:13 PM 35.8583 -76.7403 25° Northeast 485 558 31,000 -49 Level Washington Center
Mon 03:45:14 PM 35.9864 -76.6700 24° Northeast 485 558 30,900 -555 Descending Washington Center
Mon 03:46:12 PM 36.1164 -76.5947 25° Northeast 490 564 29,900 -1,008 Descending Washington Center
Mon 03:47:13 PM 36.2506 -76.5192 24° Northeast 502 578 28,900 -992 Descending Washington Center
Mon 03:48:13 PM 36.3783 -76.4483 24° Northeast 509 586 27,900 -942 Descending Washington Center
Mon 03:49:14 PM 36.5061 -76.3750 25° Northeast 504 580 27,000 -454 Descending Washington Center
Mon 03:50:12 PM 36.6358 -76.3011 25° Northeast 504 580 27,000  Level Washington Center
Mon 03:51:13 PM 36.7636 -76.2297 24° Northeast 504 580 27,000  Level Washington Center
Mon 03:52:14 PM 36.8933 -76.1528 25° Northeast 504 580 27,000  Level Washington Center
Mon 03:53:12 PM 37.0125 -76.0886 23° Northeast 504 580 27,000  Level Washington Center
Mon 03:54:12 PM 37.1378 -76.0139 25° Northeast 504 580 27,000  Level Washington Center
Mon 03:55:13 PM 37.2694 -75.9364 25° Northeast 504 580 27,000  Level Washington Center
Mon 03:56:13 PM 37.3992 -75.8611 25° Northeast 504 580 27,000  Level Washington Center
Mon 03:57:14 PM 37.5264 -75.7856 25° Northeast 504 580 27,000  Level Washington Center
Mon 03:58:14 PM 37.6581 -75.7100 24° Northeast 504 580 27,000  Level Washington Center
Mon 03:59:12 PM 37.7872 -75.6311 26° Northeast 504 580 27,000  Level Washington Center
Mon 04:00:14 PM 37.9144 -75.5522 26° Northeast 504 580 27,000 -537 Level Washington Center
Mon 04:01:15 PM 38.0481 -75.4758 24° Northeast 504 580 25,900 -1,678 Descending Washington Center
Mon 04:02:12 PM 38.1750 -75.3964 26° Northeast 504 580 23,700 -1,538 Descending Washington Center
Mon 04:03:12 PM 38.2936 -75.3192 27° Northeast 490 564 22,900 -1,041 Descending Washington Center
Mon 04:04:13 PM 38.4103 -75.2419 27° Northeast 479 551 21,600 -1,884 Descending Washington Center
Mon 04:05:13 PM 38.5269 -75.1669 27° Northeast 473 544 19,100 -2,479 Descending Washington Center
Mon 04:06:14 PM 38.6411 -75.1000 25° Northeast 460 529 16,600 -2,067 Descending Washington Center
Mon 04:07:12 PM 38.7450 -75.0275 29° Northeast 436 502 15,000 -864 Descending Washington Center
Mon 04:08:12 PM 38.8408 -74.9653 27° Northeast 405 466 14,900 -50 Descending Washington Center
Mon 04:09:13 PM 38.9406 -74.9031 26° Northeast 390 449 14,900  Level Washington Center
Mon 04:10:14 PM 39.0400 -74.8381 27° Northeast 390 449 14,900 -347 Level Washington Center
Mon 04:11:14 PM 39.1381 -74.8369 North 362 417 14,200 -1,752 Descending Washington Center
Mon 04:13:36 PM 39.3500 -74.9000 347° North 280 322 9,000 -1,545 Descending Philadelphia TRACON
Mon 04:14:36 PM 39.4167 -74.9167 349° North 263 303 9,000 -600 Level Philadelphia TRACON
Mon 04:15:36 PM 39.4833 -74.9500 339° North 266 306 7,800 -1,400 Descending Philadelphia TRACON
Mon 04:16:36 PM 39.5500 -74.9833 339° North 243 280 6,200 -900 Descending Philadelphia TRACON
Mon 04:17:36 PM 39.6167 -75.0333 330° Northwest 251 289 6,000 -95 Descending Philadelphia TRACON
Mon 04:18:42 PM 39.7000 -75.0000 17° North 262 302 6,000 -238 Level Philadelphia TRACON
Mon 04:19:42 PM 39.7667 -74.9667 21° North 266 306 5,500 -526 Descending Philadelphia TRACON
Mon 04:20:36 PM 39.8167 -74.9333 27° Northeast 228 262 5,000 -750 Descending Philadelphia TRACON
Mon 04:21:42 PM 39.8833 -74.9500 349° North 190 219 4,000 -520 Descending Philadelphia TRACON
Mon 04:22:43 PM 39.9167 -74.9833 323° Northwest 186 214 3,900 -595 Descending Philadelphia TRACON
Mon 04:23:43 PM 39.9167 -75.0500 270° West 183 211 2,800 -1,053 Descending Philadelphia TRACON
Mon 04:24:37 PM 39.9000 -75.1000 247° West 169 194 1,900 -842 Descending Philadelphia TRACON
Mon 04:25:37 PM 39.8833 -75.1500 247° West 141 162 1,200 -682 Descending Philadelphia TRACON
Mon 04:26:49 PM 39.8833 -75.2000 270° West 109 125 400 -667 Descending Philadelphia TRACON

Login

Don't have an account? Register now (free) for customized features, flight alerts, and more!